Time;durP1;ratioP1;P1;durP2;ratioP2;P2;SDS_P1;SDS_P2;PMS_P1;PMS_P2;Temp;Humidity;BMP_temperature;BMP_pressure;BME280_temperature;BME280_humidity;BME280_pressure;Samples;Min_cycle;Max_cycle;Signal;HPM_P1;HPM_P2
2023/01/22 00:02:22;;;;;;;8.93;3.53;;;;;;;10.95;100.00;100429.00;5010744;28;20030;-71
2023/01/22 00:04:48;;;;;;;11.43;4.15;;;;;;;10.93;100.00;100423.97;5012110;28;20117;-71
2023/01/22 00:07:14;;;;;;;10.88;4.28;;;;;;;10.56;100.00;100362.03;5011230;28;20034;-71
2023/01/22 00:09:40;;;;;;;12.00;4.43;;;;;;;10.88;100.00;100404.56;5012508;28;20120;-72
2023/01/22 00:12:06;;;;;;;9.90;4.10;;;;;;;10.91;100.00;100417.22;5012045;28;20080;-72
2023/01/22 00:14:31;;;;;;;12.07;4.43;;;;;;;10.20;100.00;100309.50;5011892;28;20030;-70
2023/01/22 00:16:57;;;;;;;13.48;4.68;;;;;;;10.67;100.00;100385.56;5010660;28;20058;-71
2023/01/22 00:19:22;;;;;;;12.32;4.82;;;;;;;10.53;100.00;100366.38;5011804;28;20044;-71
2023/01/22 00:21:48;;;;;;;9.93;5.00;;;;;;;10.18;100.00;100309.50;5012028;28;20025;-71
2023/01/22 00:24:13;;;;;;;9.75;4.13;;;;;;;10.96;100.00;100451.03;5012075;28;20029;-71
2023/01/22 00:26:39;;;;;;;8.65;4.63;;;;;;;10.71;100.00;100401.56;5011789;28;20022;-71
2023/01/22 00:29:05;;;;;;;10.60;4.57;;;;;;;10.46;100.00;100366.50;5011765;28;20033;-71
2023/01/22 00:31:30;;;;;;;13.10;5.18;;;;;;;10.31;100.00;100353.28;5011955;28;20049;-70
2023/01/22 00:33:56;;;;;;;13.63;5.00;;;;;;;10.74;100.00;100429.47;5010390;28;20038;-72
2023/01/22 00:36:22;;;;;;;10.93;4.90;;;;;;;10.77;100.00;100450.59;5011566;28;20033;-71
2023/01/22 00:38:48;;;;;;;11.65;4.90;;;;;;;9.95;100.00;100309.13;5011338;28;20141;-72
2023/01/22 00:41:15;;;;;;;11.10;4.65;;;;;;;10.38;100.00;100382.75;5011429;28;20076;-72
2023/01/22 00:43:41;;;;;;;12.32;4.47;;;;;;;10.67;100.00;100444.03;5011575;28;20049;-71
2023/01/22 00:46:08;;;;;;;12.30;4.53;;;;;;;10.76;100.00;100448.91;5011289;28;20948;-72
2023/01/22 00:48:34;;;;;;;11.75;4.88;;;;;;;10.35;100.00;100387.94;5009478;28;20036;-71
2023/01/22 00:50:59;;;;;;;14.32;4.63;;;;;;;10.70;100.00;100445.66;5011299;28;20589;-71
2023/01/22 00:53:25;;;;;;;8.95;4.47;;;;;;;10.66;100.00;100454.22;5026534;28;20030;-71
2023/01/22 00:55:56;;;;;;;13.27;4.15;;;;;;;10.68;100.00;100473.66;5011319;28;20431;-72
2023/01/22 00:58:22;;;;;;;12.23;4.55;;;;;;;10.70;100.00;100456.66;5008162;28;20057;-71
2023/01/22 01:00:48;;;;;;;12.10;4.22;;;;;;;10.15;100.00;100365.47;5011518;28;20034;-71
2023/01/22 01:03:29;;;;;;;10.68;4.20;;;;;;;10.50;100.00;100417.28;5008798;28;20033;-71
2023/01/22 01:05:57;;;;;;;9.95;3.83;;;;;;;10.67;100.00;100450.81;5010768;28;20041;-71
2023/01/22 01:08:24;;;;;;;7.30;3.42;;;;;;;10.71;100.00;100460.91;5011438;28;20037;-71
2023/01/22 01:11:00;;;;;;;10.25;4.10;;;;;;;10.32;100.00;100383.72;5010567;28;20041;-71
2023/01/22 01:13:26;;;;;;;10.30;3.95;;;;;;;10.79;100.00;100459.03;5010142;28;20073;-71
2023/01/22 01:16:04;;;;;;;20.63;10.68;;;;;;;10.74;100.00;100439.63;5010877;28;20050;-71
2023/01/22 01:18:31;;;;;;;11.93;4.78;;;;;;;10.51;100.00;100401.16;5010552;28;20064;-71
2023/01/22 01:20:58;;;;;;;7.93;3.65;;;;;;;10.86;100.00;100462.25;5010989;28;20114;-72
2023/01/22 01:23:25;;;;;;;10.07;3.60;;;;;;;10.90;100.00;100469.81;5010860;28;20381;-71
2023/01/22 01:25:50;;;;;;;7.18;3.72;;;;;;;10.89;100.00;100463.06;5010357;28;20042;-71
2023/01/22 01:28:17;;;;;;;13.23;3.65;;;;;;;10.38;100.00;100377.69;5010911;28;20456;-71
2023/01/22 01:30:43;;;;;;;9.25;4.05;;;;;;;10.84;100.00;100453.81;5009348;28;20087;-71
2023/01/22 01:33:08;;;;;;;11.80;3.88;;;;;;;10.81;100.00;100456.44;5010678;28;20038;-71
2023/01/22 01:35:33;;;;;;;13.57;4.05;;;;;;;10.43;100.00;100397.06;5010215;28;20483;-70
2023/01/22 01:37:59;;;;;;;9.85;3.92;;;;;;;10.77;100.00;100462.47;5010744;28;20041;-72
2023/01/22 01:40:24;;;;;;;11.32;3.78;;;;;;;10.68;100.00;100447.38;5009323;28;20056;-72
2023/01/22 01:42:50;;;;;;;7.40;3.72;;;;;;;10.72;100.00;100467.63;5010865;28;20064;-72
2023/01/22 01:45:28;;;;;;;7.97;4.00;;;;;;;10.75;100.00;100471.84;5010592;28;20033;-70
2023/01/22 01:48:22;;;;;;;8.68;4.10;;;;;;;10.75;100.00;100477.78;5010094;28;20026;-72
2023/01/22 01:50:56;;;;;;;10.77;3.80;;;;;;;10.25;100.00;100382.19;5009829;28;20099;-71
2023/01/22 01:53:22;;;;;;;10.35;3.75;;;;;;;10.69;100.00;100464.34;5009110;28;20110;-71
2023/01/22 01:55:48;;;;;;;12.10;4.30;;;;;;;10.70;100.00;100468.53;5010358;28;20033;-71
2023/01/22 01:58:20;;;;;;;10.45;4.30;;;;;;;10.41;100.00;100406.44;5009760;28;20476;-70
2023/01/22 02:00:49;;;;;;;10.82;4.30;;;;;;;10.66;100.00;100441.50;5010238;28;20030;-71
2023/01/22 02:03:15;;;;;;;10.45;4.10;;;;;;;10.80;100.00;100458.16;5008922;28;20404;-71
2023/01/22 02:05:40;;;;;;;9.13;4.05;;;;;;;10.68;100.00;100447.38;5009853;28;20030;-72
2023/01/22 02:08:08;;;;;;;10.00;4.45;;;;;;;10.13;100.00;100364.66;5010376;28;20029;-72
2023/01/22 02:10:34;;;;;;;8.93;3.60;;;;;;;10.65;100.00;100452.53;5009849;28;20037;-72
2023/01/22 02:13:06;;;;;;;10.55;3.83;;;;;;;10.20;100.00;100396.69;5009644;28;20041;-71
2023/01/22 02:15:31;;;;;;;8.07;4.20;;;;;;;10.61;100.00;100450.94;5009534;28;20049;-72
2023/01/22 02:17:57;;;;;;;9.07;4.03;;;;;;;10.18;100.00;100385.72;5009730;28;20037;-71
2023/01/22 02:20:22;;;;;;;13.55;4.32;;;;;;;10.15;100.00;100384.94;5009871;28;20540;-71
2023/01/22 02:22:48;;;;;;;15.23;4.90;;;;;;;10.27;100.00;100400.78;5010029;28;20065;-71
2023/01/22 02:25:15;;;;;;;14.88;4.85;;;;;;;10.40;100.00;100434.41;5010036;28;20519;-71
2023/01/22 02:27:41;;;;;;;11.85;4.93;;;;;;;10.53;100.00;100448.56;5009252;28;20056;-71
2023/01/22 02:30:07;;;;;;;16.27;4.32;;;;;;;10.14;100.00;100389.19;5009802;28;20030;-71
2023/01/22 02:32:32;;;;;;;10.63;4.30;;;;;;;10.53;100.00;100443.47;5007480;28;20615;-73
2023/01/22 02:34:58;;;;;;;11.65;4.50;;;;;;;10.51;100.00;100462.16;5009497;28;20033;-71
2023/01/22 02:37:23;;;;;;;12.70;5.28;;;;;;;10.15;100.00;100385.78;5008116;28;20026;-71
2023/01/22 02:39:48;;;;;;;12.82;4.97;;;;;;;10.39;100.00;100445.44;5009580;28;20045;-72
2023/01/22 02:42:14;;;;;;;12.98;4.55;;;;;;;10.32;100.00;100437.09;5009399;28;20045;-71
2023/01/22 02:44:39;;;;;;;8.13;4.40;;;;;;;10.37;100.00;100475.97;5009772;28;20034;-72
2023/01/22 02:47:05;;;;;;;9.30;4.30;;;;;;;9.47;100.00;100318.50;5008423;28;20034;-70
2023/01/22 02:49:30;;;;;;;12.23;4.45;;;;;;;10.33;100.00;100476.91;5009393;28;20037;-72
2023/01/22 02:51:56;;;;;;;12.55;4.72;;;;;;;10.10;100.00;100438.38;5009640;28;20029;-71
2023/01/22 02:54:21;;;;;;;13.43;4.95;;;;;;;10.28;100.00;100460.88;5008621;28;20554;-72
2023/01/22 02:56:47;;;;;;;12.13;5.00;;;;;;;9.47;100.00;100335.41;5009514;28;20416;-71
2023/01/22 02:59:13;;;;;;;10.45;4.60;;;;;;;10.22;100.00;100466.09;5009188;28;20033;-71
2023/01/22 03:01:38;;;;;;;15.00;5.40;;;;;;;9.78;100.00;100399.19;5009344;28;20077;-72
2023/01/22 03:04:11;;;;;;;14.18;5.75;;;;;;;9.79;100.00;100396.59;5009304;28;20077;-71
2023/01/22 03:06:45;;;;;;;9.77;4.75;;;;;;;9.96;100.00;100425.09;5007931;28;20030;-71
2023/01/22 03:09:13;;;;;;;12.50;5.05;;;;;;;10.14;100.00;100467.13;5009241;28;20030;-71
2023/01/22 03:11:40;;;;;;;10.35;5.15;;;;;;;10.06;100.00;100468.94;5009110;28;20029;-72
2023/01/22 03:22:20;;;;;;;15.27;4.65;;;;;;;10.28;100.00;100463.44;5011740;28;20054;-71
2023/01/22 03:24:52;;;;;;;17.10;5.05;;;;;;;8.98;100.00;100264.41;5012533;28;20033;-72
2023/01/22 03:27:19;;;;;;;;;;;;;;;10.11;100.00;100474.78;5013424;28;20030;-71
2023/01/22 03:29:44;;;;;;;14.98;4.95;;;;;;;10.04;100.00;100483.34;5011922;28;20382;-71
2023/01/22 03:32:10;;;;;;;12.32;5.03;;;;;;;10.01;100.00;100469.00;5012679;28;20111;-72
2023/01/22 03:34:36;;;;;;;13.05;5.88;;;;;;;9.65;100.00;100407.88;5012937;28;20484;-72
2023/01/22 03:37:02;;;;;;;12.57;5.72;;;;;;;9.95;100.00;100458.94;5013267;28;20061;-72
2023/01/22 03:39:29;;;;;;;12.20;5.68;;;;;;;9.98;100.00;100479.19;5013044;28;20038;-72
2023/01/22 03:41:54;;;;;;;15.45;6.18;;;;;;;10.09;100.00;100501.88;5017168;28;20048;-70
2023/01/22 03:44:20;;;;;;;14.57;7.55;;;;;;;9.64;100.00;100424.81;5016818;28;20494;-70
2023/01/22 03:46:45;;;;;;;16.73;7.32;;;;;;;9.97;100.00;100487.69;5013059;28;20029;-71
2023/01/22 03:49:11;;;;;;;12.63;5.85;;;;;;;9.88;100.00;100472.63;5012630;28;20095;-70
2023/01/22 03:51:37;;;;;;;15.55;6.32;;;;;;;9.58;100.00;100415.59;5010352;28;20034;-71
2023/01/22 03:54:02;;;;;;;15.13;6.32;;;;;;;9.69;100.00;100420.47;5011492;28;20476;-71
2023/01/22 03:56:28;;;;;;;11.23;5.65;;;;;;;9.45;100.00;100388.75;5012204;28;20080;-70
2023/01/22 03:58:54;;;;;;;12.30;5.85;;;;;;;9.95;100.00;100476.72;5012153;28;20116;-70
2023/01/22 04:01:22;;;;;;;14.55;5.50;;;;;;;9.99;100.00;100485.97;5011755;28;20096;-70
2023/01/22 04:03:48;;;;;;;19.73;6.03;;;;;;;9.44;100.00;100417.53;5011602;28;20036;-70
2023/01/22 04:06:14;;;;;;;13.25;5.57;;;;;;;9.89;100.00;100493.75;5011845;28;20038;-71
2023/01/22 04:08:41;;;;;;;11.38;5.65;;;;;;;9.99;100.00;100490.19;5012015;28;20088;-71
2023/01/22 04:11:07;;;;;;;12.35;6.20;;;;;;;9.96;100.00;100495.34;5011725;28;20065;-70
2023/01/22 04:13:34;;;;;;;13.52;6.45;;;;;;;9.88;100.00;100487.88;5011752;28;20033;-70
2023/01/22 04:16:00;;;;;;;13.90;6.82;;;;;;;9.95;100.00;100493.66;5012191;28;20061;-70
2023/01/22 04:18:26;;;;;;;19.17;6.50;;;;;;;9.51;100.00;100431.78;5011881;28;20042;-70
2023/01/22 04:20:52;;;;;;;14.95;6.78;;;;;;;9.94;100.00;100512.31;5011875;28;20124;-70
2023/01/22 04:23:18;;;;;;;14.32;6.13;;;;;;;9.65;100.00;100462.00;5011415;28;20041;-70
2023/01/22 04:25:44;;;;;;;13.90;5.70;;;;;;;9.55;100.00;100440.16;5008727;28;20029;-71
2023/01/22 04:28:10;;;;;;;12.57;5.28;;;;;;;10.05;100.00;100512.97;5011808;28;20511;-71
2023/01/22 04:30:37;;;;;;;12.65;5.40;;;;;;;10.52;100.00;100517.22;5011642;28;20037;-69
2023/01/22 04:33:03;;;;;;;12.10;5.93;;;;;;;9.59;100.00;100449.41;5008503;28;20492;-70
2023/01/22 04:35:28;;;;;;;15.02;6.38;;;;;;;9.37;100.00;100437.91;5010368;28;20060;-70
2023/01/22 04:37:54;;;;;;;14.48;6.63;;;;;;;9.70;100.00;100500.84;5007782;28;20137;-70
2023/01/22 04:40:20;;;;;;;15.57;6.65;;;;;;;9.56;100.00;100500.25;5010506;28;20057;-70
2023/01/22 04:42:46;;;;;;;16.67;6.90;;;;;;;9.54;100.00;100501.97;5010405;28;20405;-69
2023/01/22 04:45:11;;;;;;;12.80;6.82;;;;;;;9.26;100.00;100442.34;5010693;28;20165;-69
2023/01/22 04:47:45;;;;;;;12.60;6.45;;;;;;;9.67;100.00;100520.34;5009520;28;20026;-68
2023/01/22 04:50:17;;;;;;;12.70;6.10;;;;;;;9.35;100.00;100467.56;5010554;28;20103;-69
2023/01/22 04:52:42;;;;;;;10.60;6.07;;;;;;;9.32;100.00;100468.47;5009857;28;20026;-69
2023/01/22 04:55:09;;;;;;;13.23;6.68;;;;;;;9.33;100.00;100480.28;5010190;28;20038;-69
2023/01/22 04:57:34;;;;;;;16.55;7.45;;;;;;;9.57;100.00;100530.66;5009355;28;20088;-69
2023/01/22 05:00:00;;;;;;;15.55;7.28;;;;;;;8.80;100.00;100404.13;5010070;28;20681;-69
2023/01/22 05:02:25;;;;;;;12.77;6.95;;;;;;;9.36;100.00;100503.06;5010842;28;20046;-69
2023/01/22 05:04:50;;;;;;;15.02;7.00;;;;;;;9.62;100.00;100540.75;5009419;28;20396;-70
2023/01/22 05:07:16;;;;;;;14.07;6.55;;;;;;;9.65;100.00;100542.41;5010845;28;20041;-70
2023/01/22 05:09:41;;;;;;;15.95;7.28;;;;;;;9.40;100.00;100512.31;5010795;28;20033;-69
2023/01/22 05:12:07;;;;;;;14.73;7.03;;;;;;;9.33;100.00;100498.03;5010291;28;20045;-71
2023/01/22 05:14:32;;;;;;;14.88;6.82;;;;;;;9.67;100.00;100560.97;5010497;28;20037;-69
2023/01/22 05:16:57;;;;;;;13.48;7.03;;;;;;;8.92;100.00;100449.59;5009426;28;20227;-71
2023/01/22 05:19:23;;;;;;;13.65;6.85;;;;;;;9.70;100.00;100573.63;5009369;28;20438;-70
2023/01/22 05:21:48;;;;;;;14.23;7.20;;;;;;;9.34;100.00;100514.09;5011807;28;20426;-69
2023/01/22 05:24:14;;;;;;;15.55;6.75;;;;;;;9.30;100.00;100532.75;5011223;28;20037;-69
2023/01/22 05:26:39;;;;;;;15.77;7.65;;;;;;;9.59;100.00;100594.09;5002264;28;20031;-70
2023/01/22 05:29:05;;;;;;;11.73;7.05;;;;;;;9.38;100.00;100528.41;5007513;28;20511;-69
2023/01/22 05:31:30;;;;;;;15.65;7.75;;;;;;;9.83;100.00;100597.97;5011090;28;20103;-70
2023/01/22 05:33:56;;;;;;;15.65;8.35;;;;;;;9.74;100.00;100598.97;5010907;28;20041;-70
2023/01/22 05:36:21;;;;;;;20.25;12.18;;;;;;;9.36;100.00;100543.69;5011178;28;20128;-70
2023/01/22 05:38:47;;;;;;;16.35;8.73;;;;;;;10.84;100.00;100608.97;5010915;28;20029;-69
2023/01/22 05:41:12;;;;;;;20.70;8.98;;;;;;;9.56;100.00;100567.06;5011094;28;20034;-69
2023/01/22 05:43:38;;;;;;;13.32;9.07;;;;;;;9.74;100.00;100610.81;5008664;28;20509;-69
2023/01/22 05:46:03;;;;;;;15.27;7.95;;;;;;;9.34;100.00;100553.00;5008764;28;20120;-69
2023/01/22 05:48:31;;;;;;;12.93;7.47;;;;;;;9.18;100.00;100528.69;5009901;28;20038;-68
2023/01/22 05:50:56;;;;;;;14.57;7.82;;;;;;;9.69;100.00;100618.47;5007914;28;20032;-68
2023/01/22 05:53:22;;;;;;;15.32;7.25;;;;;;;9.28;100.00;100557.31;5009507;28;20484;-68
2023/01/22 05:55:47;;;;;;;20.50;10.85;;;;;;;9.63;100.00;100602.53;5008741;28;20823;-68
2023/01/22 05:58:12;;;;;;;15.75;8.27;;;;;;;9.64;100.00;100617.72;5008673;28;20030;-68
2023/01/22 06:00:38;;;;;;;17.33;8.73;;;;;;;9.69;100.00;100607.47;5007983;28;20030;-68
2023/01/22 06:03:03;;;;;;;14.20;8.57;;;;;;;9.74;100.00;100615.91;5008730;28;20038;-68
2023/01/22 06:05:29;;;;;;;17.08;8.48;;;;;;;9.81;100.00;100618.31;5009007;28;20030;-68
2023/01/22 06:07:54;;;;;;;19.30;9.02;;;;;;;9.74;100.00;100596.44;5008863;28;20033;-68
2023/01/22 06:10:19;;;;;;;15.38;8.68;;;;;;;9.41;100.00;100546.97;5009342;28;20025;-68
2023/01/22 06:12:45;;;;;;;16.35;8.65;;;;;;;9.75;100.00;100613.31;5007980;28;20095;-68
2023/01/22 06:15:11;;;;;;;18.52;9.43;;;;;;;9.87;100.00;100619.91;5007638;28;20212;-69
2023/01/22 06:17:37;;;;;;;18.50;9.93;;;;;;;8.92;100.00;100482.56;5009512;28;20029;-68
2023/01/22 06:20:04;;;;;;;14.60;8.80;;;;;;;9.53;100.00;100573.88;5009925;28;20038;-69
2023/01/22 06:22:30;;;;;;;20.92;9.52;;;;;;;9.01;100.00;100494.28;5010277;28;20029;-69
2023/01/22 06:24:55;;;;;;;21.48;9.90;;;;;;;9.82;100.00;100617.47;5010896;28;20038;-68
2023/01/22 06:27:21;;;;;;;18.13;10.10;;;;;;;9.30;100.00;100553.06;5010464;28;20403;-68
2023/01/22 06:29:46;;;;;;;18.67;10.70;;;;;;;9.82;100.00;100627.63;5010058;28;20116;-68
2023/01/22 06:32:11;;;;;;;16.75;10.63;;;;;;;9.78;100.00;100637.84;5009793;28;20033;-68
2023/01/22 06:34:37;;;;;;;21.25;12.00;;;;;;;9.86;100.00;100649.56;5009609;28;20112;-68
2023/01/22 06:37:03;;;;;;;24.25;13.50;;;;;;;9.91;100.00;100636.78;5009840;28;20518;-69
2023/01/22 06:39:29;;;;;;;19.70;12.45;;;;;;;9.46;100.00;100557.06;5010146;28;20161;-69
2023/01/22 06:41:54;;;;;;;31.17;18.27;;;;;;;9.83;100.00;100619.13;5008300;28;20162;-68
2023/01/22 06:44:19;;;;;;;23.63;12.25;;;;;;;9.89;100.00;100641.91;5010211;28;20018;-69
2023/01/22 06:46:46;;;;;;;24.48;12.57;;;;;;;9.95;100.00;100639.28;5010169;28;20026;-69
2023/01/22 06:49:12;;;;;;;21.42;11.68;;;;;;;10.03;100.00;100636.59;5009697;28;20125;-68
2023/01/22 06:51:37;;;;;;;22.00;11.10;;;;;;;9.89;100.00;100636.81;5010185;28;20030;-68
2023/01/22 06:54:03;;;;;;;17.58;11.90;;;;;;;10.02;100.00;100650.19;5009352;28;20040;-68
2023/01/22 06:56:28;;;;;;;21.38;12.35;;;;;;;10.06;100.00;100644.19;5010871;28;20038;-68
2023/01/22 06:58:54;;;;;;;19.13;11.77;;;;;;;9.78;100.00;100575.22;5014230;28;20046;-68
2023/01/22 07:01:19;;;;;;;22.27;12.32;;;;;;;10.09;100.00;100634.81;5014121;28;20063;-68
2023/01/22 07:03:44;;;;;;;19.27;11.73;;;;;;;9.63;100.00;100566.09;5013609;28;20033;-69
2023/01/22 07:06:10;;;;;;;19.38;12.27;;;;;;;9.81;100.00;100600.53;5014555;28;20049;-68
2023/01/22 07:08:36;;;;;;;23.50;12.43;;;;;;;9.84;100.00;100586.97;5014338;28;20095;-68
2023/01/22 07:11:01;;;;;;;23.40;12.77;;;;;;;9.81;100.00;100592.06;5014405;28;20030;-68
2023/01/22 07:13:27;;;;;;;22.50;14.07;;;;;;;10.32;100.00;100670.06;5012167;28;20030;-68
2023/01/22 07:15:52;;;;;;;19.75;12.75;;;;;;;10.02;100.00;100632.41;5014109;28;20478;-70
2023/01/22 07:18:19;;;;;;;24.10;13.23;;;;;;;10.23;100.00;100673.59;5012584;28;20112;-68
2023/01/22 07:20:46;;;;;;;25.70;12.93;;;;;;;10.13;100.00;100683.91;5014164;28;20030;-68
2023/01/22 07:23:12;;;;;;;19.48;12.10;;;;;;;9.98;100.00;100638.38;5014053;28;20038;-68
2023/01/22 07:25:37;;;;;;;22.27;12.75;;;;;;;10.18;100.00;100682.16;5013934;28;20488;-68
2023/01/22 07:28:04;;;;;;;19.33;12.02;;;;;;;10.03;100.00;100640.00;5013864;28;20079;-68
2023/01/22 07:30:30;;;;;;;22.42;13.52;;;;;;;10.10;100.00;100626.34;5013789;28;20036;-68
2023/01/22 07:32:59;;;;;;;19.85;13.40;;;;;;;10.46;100.00;100691.00;5012194;28;20037;-70
2023/01/22 07:35:25;;;;;;;27.85;15.27;;;;;;;10.48;100.00;100683.38;5013753;28;20034;-70
2023/01/22 07:37:56;;;;;;;25.38;14.60;;;;;;;10.46;100.00;100685.91;5013690;28;20038;-70
2023/01/22 07:40:23;;;;;;;26.33;14.38;;;;;;;10.15;100.00;100624.59;5012994;28;20041;-70
2023/01/22 07:42:52;;;;;;;21.67;13.35;;;;;;;10.15;100.00;100641.53;5013169;28;20030;-68
2023/01/22 07:45:18;;;;;;;21.08;13.50;;;;;;;10.55;100.00;100695.13;5012508;28;20040;-68
2023/01/22 07:47:58;;;;;;;24.02;12.70;;;;;;;10.08;100.00;100639.94;5013660;28;20034;-67
2023/01/22 07:50:29;;;;;;;22.60;13.75;;;;;;;10.57;100.00;100718.81;5013518;28;20045;-70
2023/01/22 07:52:55;;;;;;;23.60;12.93;;;;;;;10.66;100.00;100734.75;5019486;28;20037;-70
2023/01/22 07:55:21;;;;;;;20.58;11.95;;;;;;;10.25;100.00;100666.78;5018009;28;20046;-70
2023/01/22 07:57:47;;;;;;;20.65;12.23;;;;;;;10.13;100.00;100658.50;5013088;28;20029;-69
2023/01/22 08:00:14;;;;;;;20.55;12.25;;;;;;;10.58;100.00;100735.75;5013193;28;20439;-70
2023/01/22 08:02:41;;;;;;;20.83;11.85;;;;;;;10.54;100.00;100762.09;5013188;28;20053;-70
2023/01/22 08:05:07;;;;;;;21.98;12.70;;;;;;;10.04;100.00;100677.22;5013178;28;20486;-70
2023/01/22 08:07:32;;;;;;;24.30;12.93;;;;;;;10.06;100.00;100672.16;5011566;28;20125;-70
2023/01/22 08:09:58;;;;;;;24.52;13.60;;;;;;;10.09;100.00;100700.03;5012703;28;20566;-70
2023/01/22 08:12:23;;;;;;;22.33;13.10;;;;;;;10.49;100.00;100751.97;5012532;28;20499;-70
2023/01/22 08:14:49;;;;;;;21.35;13.18;;;;;;;10.59;100.00;100770.47;5011210;28;20030;-70
2023/01/22 08:17:14;;;;;;;24.63;14.43;;;;;;;10.45;100.00;100769.00;5013080;28;20553;-69
2023/01/22 08:19:40;;;;;;;22.48;14.43;;;;;;;10.44;100.00;100746.97;5012339;28;20029;-70
2023/01/22 08:22:05;;;;;;;26.00;13.60;;;;;;;9.97;100.00;100683.25;5012715;28;20104;-70
2023/01/22 08:24:31;;;;;;;22.90;12.80;;;;;;;10.10;100.00;100694.94;5011425;28;20480;-71
2023/01/22 08:26:57;;;;;;;26.00;15.27;;;;;;;10.14;100.00;100704.22;5011172;28;20400;-68
2023/01/22 08:29:22;;;;;;;22.63;14.73;;;;;;;10.55;100.00;100771.38;5012298;28;20042;-70
2023/01/22 08:31:49;;;;;;;25.65;13.98;;;;;;;10.12;100.00;100700.03;5011370;28;20080;-70
2023/01/22 08:34:14;;;;;;;22.92;13.77;;;;;;;10.28;100.00;100740.41;5010906;28;20128;-70
2023/01/22 08:36:40;;;;;;;25.73;13.60;;;;;;;10.33;100.00;100742.91;5012647;28;20461;-70
2023/01/22 08:39:05;;;;;;;26.00;14.57;;;;;;;10.02;100.00;100696.72;5012314;28;20526;-67
2023/01/22 08:41:30;;;;;;;25.27;16.00;;;;;;;10.01;100.00;100681.50;5011214;28;20044;-68
2023/01/22 08:43:56;;;;;;;25.40;16.25;;;;;;;10.48;100.00;100752.03;5012115;28;20030;-68
2023/01/22 08:46:21;;;;;;;28.75;16.00;;;;;;;10.07;100.00;100702.59;5011316;28;20030;-70
2023/01/22 08:48:47;;;;;;;27.33;15.32;;;;;;;10.46;100.00;100768.13;5012246;28;20428;-70
2023/01/22 08:51:13;;;;;;;26.90;16.50;;;;;;;10.08;100.00;100683.94;5043976;28;20115;-70
2023/01/22 08:53:38;;;;;;;27.05;15.88;;;;;;;10.22;100.00;100688.88;5012285;28;20054;-70
2023/01/22 08:56:04;;;;;;;32.22;18.13;;;;;;;10.64;100.00;100748.34;5012356;28;20025;-70
2023/01/22 08:58:30;;;;;;;28.48;18.15;;;;;;;10.20;100.00;100672.81;5012113;28;20091;-70
2023/01/22 09:00:55;;;;;;;23.05;15.35;;;;;;;10.79;100.00;100771.84;5012442;28;20526;-68
2023/01/22 09:03:21;;;;;;;24.52;14.70;;;;;;;10.75;100.00;100771.91;5011832;28;20047;-70
2023/01/22 09:05:47;;;;;;;28.75;16.50;;;;;;;10.48;100.00;100713.00;5011039;28;20235;-68
2023/01/22 09:08:12;;;;;;;26.73;15.90;;;;;;;10.83;100.00;100745.50;5012352;28;20530;-70
2023/01/22 09:10:38;;;;;;;23.48;14.00;;;;;;;11.00;100.00;100768.09;5043788;28;20499;-70
2023/01/22 09:13:04;;;;;;;27.73;14.90;;;;;;;10.97;100.00;100768.97;5011282;28;20036;-70
2023/01/22 09:15:29;;;;;;;25.08;13.70;;;;;;;10.64;100.00;100707.66;5010486;28;20054;-69
2023/01/22 09:17:55;;;;;;;23.25;13.68;;;;;;;10.77;100.00;100722.72;5011967;28;20030;-70
2023/01/22 09:20:20;;;;;;;21.52;13.93;;;;;;;10.74;100.00;100704.94;5011252;28;20042;-70
2023/01/22 09:22:47;;;;;;;24.63;15.02;;;;;;;11.00;100.00;100735.03;5012100;28;20112;-68
2023/01/22 09:25:13;;;;;;;21.23;14.20;;;;;;;10.91;100.00;100792.00;5043398;28;20088;-71
2023/01/22 09:27:39;;;;;;;23.17;14.70;;;;;;;10.42;100.00;100708.00;5011758;28;20034;-70
2023/01/22 09:30:05;;;;;;;24.05;15.20;;;;;;;10.84;100.00;100784.47;5011500;28;20165;-70
2023/01/22 09:32:30;;;;;;;24.75;14.77;;;;;;;10.65;100.00;100752.59;5010739;28;20030;-70
2023/01/22 09:34:56;;;;;;;25.60;15.30;;;;;;;10.94;100.00;100791.94;5010198;28;20040;-70
2023/01/22 09:37:21;;;;;;;27.05;16.67;;;;;;;10.49;100.00;100726.56;5011094;28;20393;-70
2023/01/22 09:39:48;;;;;;;26.50;15.65;;;;;;;10.45;100.00;100722.38;5011275;28;20120;-70
2023/01/22 09:42:29;;;;;;;24.98;14.80;;;;;;;10.93;100.00;100797.06;5011233;28;20233;-70
2023/01/22 09:45:01;;;;;;;30.10;14.90;;;;;;;11.04;100.00;100807.91;5011755;28;20041;-70
2023/01/22 09:47:49;;;;;;;25.08;15.73;;;;;;;10.99;100.00;100802.06;5011412;28;20033;-70
2023/01/22 09:50:17;;;;;;;28.88;15.68;;;;;;;11.08;100.00;100806.97;5011402;28;20401;-70
2023/01/22 09:52:43;;;;;;;24.88;15.02;;;;;;;10.90;100.00;100781.84;5011415;28;20468;-70
2023/01/22 09:55:17;;;;;;;25.35;14.43;;;;;;;10.69;100.00;100738.97;5011007;28;20068;-70
2023/01/22 09:57:48;;;;;;;28.80;16.25;;;;;;;11.21;100.00;100803.38;5011097;28;20033;-70
2023/01/22 10:00:25;;;;;;;24.38;16.10;;;;;;;10.71;100.00;100730.44;5011412;28;20026;-68
2023/01/22 10:03:00;;;;;;;25.13;15.73;;;;;;;10.87;100.00;100738.66;5011266;28;20034;-70
2023/01/22 10:05:34;;;;;;;25.75;15.73;;;;;;;10.75;100.00;100732.06;5009947;28;21557;-68
2023/01/22 10:08:05;;;;;;;27.20;15.85;;;;;;;11.24;100.00;100826.22;5009596;28;20454;-68
2023/01/22 10:10:32;;;;;;;33.83;16.33;;;;;;;10.96;100.00;100758.84;5042644;28;20041;-67
2023/01/22 10:13:10;;;;;;;22.02;13.73;;;;;;;11.16;100.00;100802.59;5010441;28;20129;-68
2023/01/22 10:15:35;;;;;;;24.92;15.57;;;;;;;10.79;100.00;100736.25;5009338;28;20046;-68
2023/01/22 10:18:12;;;;;;;33.67;19.13;;;;;;;11.39;100.00;100827.66;5010964;28;20103;-68
2023/01/22 10:20:39;;;;;;;41.30;22.50;;;;;;;11.38;100.00;100808.16;5010948;28;20091;-68
2023/01/22 10:23:15;;;;;;;31.85;18.02;;;;;;;10.87;100.00;100743.75;5010512;28;20191;-68
2023/01/22 10:25:41;;;;;;;28.63;16.42;;;;;;;10.93;100.00;100733.47;5010471;28;20451;-68
2023/01/22 10:28:07;;;;;;;20.98;14.23;;;;;;;10.93;100.00;100733.47;5009719;28;20030;-69
2023/01/22 10:30:34;;;;;;;26.35;15.02;;;;;;;11.22;100.00;100805.88;5010141;28;20026;-68
2023/01/22 10:33:04;;;;;;;54.67;27.90;;;;;;;11.07;100.00;100774.78;5010363;28;20401;-68
2023/01/22 10:35:31;;;;;;;41.40;25.17;;;;;;;11.37;100.00;100842.13;5011161;28;20037;-68
2023/01/22 10:37:58;;;;;;;49.67;28.63;;;;;;;10.69;100.00;100688.09;5010353;28;20038;-69
2023/01/22 10:40:36;;;;;;;46.55;26.80;;;;;;;11.06;100.00;100763.75;5010381;28;20112;-67
2023/01/22 10:43:08;;;;;;;40.15;23.33;;;;;;;11.58;100.00;100837.50;5010818;28;20034;-68
2023/01/22 10:45:34;;;;;;;49.45;30.35;;;;;;;11.16;100.00;100757.63;5009184;28;20156;-67
2023/01/22 10:48:18;;;;;;;40.75;24.70;;;;;;;11.25;100.00;100766.81;5010553;28;20104;-68
2023/01/22 10:50:45;;;;;;;37.22;22.70;;;;;;;11.49;100.00;100826.66;5010540;28;20144;-68
2023/01/22 10:53:44;;;;;;;31.65;19.98;;;;;;;11.05;100.00;100720.53;5010085;28;20030;-67
2023/01/22 10:56:12;;;;;;;36.97;23.23;;;;;;;11.60;100.00;100805.19;5010097;28;20042;-68
2023/01/22 10:58:44;;;;;;;46.22;30.05;;;;;;;11.47;100.00;100801.19;5010237;28;20034;-73
2023/01/22 11:01:35;;;;;;;43.40;28.67;;;;;;;11.14;100.00;100738.16;5010474;28;20030;-68
2023/01/22 11:04:36;;;;;;;40.85;24.63;;;;;;;11.38;100.00;100803.91;5010538;28;20072;-68
2023/01/22 11:07:19;;;;;;;30.65;18.27;;;;;;;11.40;100.00;100789.44;5008167;28;20397;-68
2023/01/22 11:10:19;;;;;;;32.58;20.45;;;;;;;11.48;100.00;100805.44;5010376;28;20117;-68
2023/01/22 11:12:50;;;;;;;33.30;20.00;;;;;;;11.00;100.00;100742.66;5009856;28;20037;-68
2023/01/22 11:15:21;;;;;;;30.33;17.52;;;;;;;11.43;100.00;100822.47;5010487;28;20161;-69
2023/01/22 11:17:50;;;;;;;30.52;18.33;;;;;;;11.48;100.00;100818.16;5008756;28;20034;-69
2023/01/22 11:20:24;;;;;;;31.20;19.10;;;;;;;11.59;100.00;100813.69;5009729;28;20049;-69